Time;durP1;ratioP1;P1;durP2;ratioP2;P2;SDS_P1;SDS_P2;PMS_P1;PMS_P2;Temp;Humidity;BMP_temperature;BMP_pressure;BME280_temperature;BME280_humidity;BME280_pressure;Samples;Min_cycle;Max_cycle;Signal;HPM_P1;HPM_P2
2021/05/22 00:05:59;;;;;;;0.80;0.77;;;;;;;15.18;64.86;99565.09;20797660;28;20235;-59
2021/05/22 00:16:00;;;;;;;1.83;0.90;;;;;;;15.13;65.46;99546.72;20788222;28;20231;-59
2021/05/22 00:26:00;;;;;;;0.57;0.57;;;;;;;15.04;66.63;99547.59;20800215;28;20227;-60
2021/05/22 00:36:01;;;;;;;1.20;1.00;;;;;;;14.93;66.65;99555.84;20809076;28;20220;-61
2021/05/22 00:46:01;;;;;;;1.80;0.50;;;;;;;14.77;67.74;99551.91;20796451;28;20223;-61
2021/05/22 00:56:03;;;;;;;1.33;0.70;;;;;;;14.75;69.23;99553.03;20812991;28;20227;-60
2021/05/22 01:06:38;;;;;;;1.23;0.70;;;;;;;14.66;69.81;99565.47;20791123;28;20345;-61
2021/05/22 01:16:40;;;;;;;0.80;0.80;;;;;;;14.38;71.09;99571.66;20637017;28;20266;-60
2021/05/22 01:26:41;;;;;;;1.73;0.70;;;;;;;14.09;71.90;99563.63;20614559;28;20232;-60
2021/05/22 01:36:42;;;;;;;0.60;0.60;;;;;;;13.79;73.77;99559.16;20618960;28;20266;-60
2021/05/22 01:46:42;;;;;;;1.03;0.80;;;;;;;13.59;75.09;99558.28;20651334;28;20263;-60
2021/05/22 01:56:43;;;;;;;0.47;0.47;;;;;;;13.39;76.98;99553.00;20800916;28;20657;-62
2021/05/22 02:06:45;;;;;;;0.85;0.70;;;;;;;13.15;78.21;99577.41;20798546;28;20987;-60
2021/05/22 02:16:51;;;;;;;0.50;0.50;;;;;;;12.95;79.97;99568.38;20791401;28;20224;-63
2021/05/22 02:26:56;;;;;;;1.97;0.90;;;;;;;12.87;81.96;99557.47;20804347;28;20255;-60
2021/05/22 02:36:58;;;;;;;0.83;0.70;;;;;;;12.89;82.90;99552.84;20782921;28;20301;-60
2021/05/22 02:46:58;;;;;;;1.13;0.80;;;;;;;12.81;83.54;99560.66;20802800;28;20232;-60
2021/05/22 02:56:59;;;;;;;1.00;1.00;;;;;;;12.88;84.67;99568.06;20781759;28;21001;-61
2021/05/22 03:07:00;;;;;;;1.00;0.90;;;;;;;12.95;84.79;99584.44;20801959;28;20229;-60
2021/05/22 03:17:02;;;;;;;1.57;1.20;;;;;;;12.91;85.43;99593.75;20786810;28;20220;-61
2021/05/22 03:27:02;;;;;;;1.30;1.20;;;;;;;13.07;85.71;99591.41;20797353;28;20605;-61
2021/05/22 03:37:03;;;;;;;1.27;1.17;;;;;;;13.25;86.41;99597.91;20792485;28;20220;-61
2021/05/22 03:47:04;;;;;;;2.30;1.33;;;;;;;13.61;85.39;99599.22;20789979;28;20705;-65
2021/05/22 03:57:04;;;;;;;2.23;1.13;;;;;;;13.96;83.75;99604.13;20806312;28;20258;-61
2021/05/22 04:07:05;;;;;;;1.13;1.00;;;;;;;14.18;82.22;99591.44;20795076;28;20316;-61
2021/05/22 04:17:05;;;;;;;3.23;1.00;;;;;;;14.25;81.19;99581.84;20816065;28;20467;-60
2021/05/22 04:27:06;;;;;;;1.77;1.20;;;;;;;14.70;79.25;99588.38;20799748;28;20760;-60
2021/05/22 04:37:06;;;;;;;1.10;1.00;;;;;;;15.61;76.31;99594.09;20814353;28;20228;-65
2021/05/22 04:47:07;;;;;;;0.97;0.97;;;;;;;16.58;73.71;99600.59;20796688;28;20226;-62
2021/05/22 04:57:07;;;;;;;1.70;0.90;;;;;;;17.30;69.69;99607.56;20807849;28;20228;-62
2021/05/22 05:07:08;;;;;;;1.13;0.90;;;;;;;17.47;68.12;99630.97;20802514;28;20220;-61
2021/05/22 05:17:08;;;;;;;0.67;0.67;;;;;;;17.78;67.34;99616.97;20798064;28;20220;-67
2021/05/22 05:27:11;;;;;;;1.00;0.90;;;;;;;18.23;66.04;99603.16;20809154;28;20285;-66
2021/05/22 05:37:11;;;;;;;0.83;0.73;;;;;;;18.72;64.22;99600.56;20812701;28;20697;-67
2021/05/22 05:47:12;;;;;;;0.85;0.63;;;;;;;18.41;63.58;99608.41;20749754;28;20231;-66
2021/05/22 05:57:12;;;;;;;1.67;1.10;;;;;;;17.96;64.29;99609.66;20805055;28;20289;-62
2021/05/22 06:07:13;;;;;;;0.80;0.80;;;;;;;18.19;64.25;99610.72;20792693;28;20220;-64
2021/05/22 06:17:13;;;;;;;0.83;0.83;;;;;;;18.65;62.78;99603.06;20800472;28;20236;-64
2021/05/22 06:27:14;;;;;;;1.40;1.00;;;;;;;18.94;61.58;99606.13;20788703;28;20698;-62
2021/05/22 06:37:15;;;;;;;0.63;0.63;;;;;;;19.50;61.59;99623.34;20804396;28;20225;-62
2021/05/22 06:47:15;;;;;;;0.70;0.70;;;;;;;20.05;59.48;99627.88;20773344;28;20216;-64
2021/05/22 06:57:16;;;;;;;1.83;1.00;;;;;;;20.58;57.77;99629.81;20803304;28;20224;-63
2021/05/22 07:07:17;;;;;;;1.63;1.50;;;;;;;20.72;57.16;99625.50;20762824;28;20220;-58
2021/05/22 07:17:17;;;;;;;1.27;1.17;;;;;;;20.33;56.38;99637.22;20726592;28;20221;-58
2021/05/22 07:27:19;;;;;;;3.47;1.30;;;;;;;19.81;58.25;99614.44;20731942;28;20292;-58
2021/05/22 07:37:19;;;;;;;2.37;1.40;;;;;;;20.02;58.18;99622.84;20746505;28;20231;-60
2021/05/22 07:47:20;;;;;;;1.53;0.90;;;;;;;20.15;58.35;99612.28;20746107;28;20691;-59
2021/05/22 07:57:21;;;;;;;1.23;0.90;;;;;;;20.49;58.18;99611.94;20746704;28;20286;-59
2021/05/22 08:07:22;;;;;;;0.70;0.70;;;;;;;20.95;56.35;99618.19;20745564;28;20278;-65
2021/05/22 08:17:23;;;;;;;1.83;1.10;;;;;;;21.11;56.10;99615.34;20745471;28;20851;-60
2021/05/22 08:27:23;;;;;;;1.07;0.63;;;;;;;20.75;55.92;99630.56;20744542;28;20384;-58
2021/05/22 08:37:24;;;;;;;1.20;0.60;;;;;;;20.41;57.38;99622.81;20764686;28;20216;-61
2021/05/22 08:47:24;;;;;;;0.80;0.73;;;;;;;20.32;59.05;99627.41;20741972;28;20234;-58
2021/05/22 08:57:25;;;;;;;1.37;0.83;;;;;;;20.27;59.32;99629.81;20742828;28;20254;-58
2021/05/22 09:07:25;;;;;;;2.93;0.97;;;;;;;20.06;60.17;99624.16;20741409;28;20650;-60
2021/05/22 09:17:26;;;;;;;2.27;0.83;;;;;;;19.73;61.75;99613.44;20739932;28;20227;-65
2021/05/22 09:27:36;;;;;;;1.23;0.70;;;;;;;19.12;64.52;99645.66;20740015;28;20237;-59
2021/05/22 09:37:51;;;;;;;2.47;1.27;;;;;;;18.90;67.26;99641.78;20754710;28;20507;-59
2021/05/22 09:47:53;;;;;;;1.30;1.20;;;;;;;18.75;68.68;99641.59;20738628;28;20316;-60
2021/05/22 09:57:56;;;;;;;1.60;1.20;;;;;;;18.33;70.48;99645.22;20757526;28;20223;-60
2021/05/22 10:07:57;;;;;;;1.70;1.27;;;;;;;17.81;74.73;99649.03;20738154;28;20257;-59
2021/05/22 10:17:57;;;;;;;1.50;1.40;;;;;;;17.61;76.85;99633.06;20735201;28;20221;-65
2021/05/22 10:27:58;;;;;;;2.63;1.50;;;;;;;17.29;76.94;99612.13;20732818;28;20229;-61
2021/05/22 10:37:59;;;;;;;1.50;1.40;;;;;;;17.21;77.86;99600.44;20734105;28;20717;-61
2021/05/22 10:48:08;;;;;;;1.40;1.30;;;;;;;17.21;77.70;99592.34;20730846;28;20225;-62
2021/05/22 10:58:08;;;;;;;1.80;1.70;;;;;;;17.50;77.21;99576.69;20732185;28;20228;-60
2021/05/22 11:08:08;;;;;;;1.90;1.80;;;;;;;17.73;76.76;99570.75;20732223;28;20316;-65
2021/05/22 11:18:10;;;;;;;1.53;1.43;;;;;;;17.77;74.75;99550.50;20732655;28;20228;-63
2021/05/22 11:28:17;;;;;;;1.77;1.67;;;;;;;17.93;74.19;99545.19;20732029;28;20256;-61
2021/05/22 11:38:17;;;;;;;2.40;2.20;;;;;;;18.27;76.02;99532.41;20730243;28;20224;-61
2021/05/22 11:48:30;;;;;;;2.07;1.80;;;;;;;18.84;74.88;99523.50;20731144;28;20255;-62
2021/05/22 11:58:31;;;;;;;2.63;2.07;;;;;;;18.40;74.58;99533.78;20730151;28;20919;-65
2021/05/22 12:08:32;;;;;;;2.40;2.20;;;;;;;17.76;76.00;99535.31;20729224;28;20714;-64
2021/05/22 12:18:33;;;;;;;2.83;2.63;;;;;;;17.08;79.77;99540.72;20734692;28;20217;-60
2021/05/22 12:28:33;;;;;;;3.67;3.37;;;;;;;16.31;84.86;99549.47;20761406;28;20225;-61
2021/05/22 12:38:42;;;;;;;3.57;2.70;;;;;;;15.75;90.30;99558.66;20743852;28;20287;-60
2021/05/22 12:48:42;;;;;;;2.37;2.00;;;;;;;15.05;90.56;99544.78;20743505;28;20900;-65
2021/05/22 12:58:44;;;;;;;6.20;3.90;;;;;;;14.77;90.13;99548.34;20742370;28;20216;-60
2021/05/22 13:08:45;;;;;;;3.07;2.50;;;;;;;14.81;91.76;99546.25;20741719;28;20228;-63
2021/05/22 13:18:46;;;;;;;3.97;2.23;;;;;;;15.26;92.88;99535.63;20739788;28;20247;-58
2021/05/22 13:28:52;;;;;;;2.73;2.40;;;;;;;15.77;90.59;99514.47;20737651;28;20282;-58
2021/05/22 13:38:53;;;;;;;2.60;2.40;;;;;;;16.53;87.12;99514.03;20738717;28;20213;-58
2021/05/22 13:48:54;;;;;;;2.73;2.53;;;;;;;16.92;84.78;99496.47;20739924;28;20224;-58
2021/05/22 13:58:55;;;;;;;2.93;2.73;;;;;;;16.79;84.58;99490.66;20744484;28;20749;-57
2021/05/22 14:08:55;;;;;;;3.03;2.73;;;;;;;16.67;84.31;99491.91;20709694;28;20668;-61
2021/05/22 14:18:56;;;;;;;3.50;3.20;;;;;;;16.66;83.24;99490.25;20751878;28;20258;-61
2021/05/22 14:28:56;;;;;;;3.83;3.40;;;;;;;16.68;83.39;99487.38;20715801;28;20220;-60
2021/05/22 14:38:57;;;;;;;3.03;2.73;;;;;;;16.88;82.81;99505.91;20713983;28;20234;-65
2021/05/22 14:48:57;;;;;;;3.23;2.73;;;;;;;17.13;81.13;99503.34;20733276;28;20318;-60
2021/05/22 14:58:58;;;;;;;3.63;2.60;;;;;;;17.84;77.52;99489.50;20733482;28;20518;-60
2021/05/22 15:08:58;;;;;;;1.90;1.80;;;;;;;17.36;74.99;99488.28;20764450;28;20694;-66
2021/05/22 15:18:59;;;;;;;2.90;1.90;;;;;;;16.80;78.20;99497.75;20732705;28;20749;-63
2021/05/22 15:28:59;;;;;;;2.47;1.93;;;;;;;16.29;79.63;99503.06;20766397;28;20243;-62
2021/05/22 15:39:00;;;;;;;10.50;7.70;;;;;;;15.60;84.16;99500.97;20812843;28;20220;-64
2021/05/22 15:59:05;;;;;;;8.17;5.03;;;;;;;14.84;88.00;99478.81;20816446;28;20526;-59
2021/05/22 16:09:05;;;;;;;2.65;0.93;;;;;;;13.01;79.84;99550.94;20810832;28;20233;-62
2021/05/22 16:19:06;;;;;;;4.27;2.60;;;;;;;12.58;83.98;99566.16;20827103;28;20241;-62
2021/05/22 16:29:08;;;;;;;7.57;4.53;;;;;;;12.26;87.54;99549.28;20824817;28;20255;-59
2021/05/22 16:39:09;;;;;;;7.47;2.57;;;;;;;12.08;88.00;99553.47;20823895;28;20224;-58
2021/05/22 16:49:10;;;;;;;3.50;2.20;;;;;;;12.00;88.17;99569.31;20824595;28;20723;-60
2021/05/22 16:59:10;;;;;;;1.23;1.13;;;;;;;12.05;89.55;99580.50;20824102;28;20231;-60
2021/05/22 17:09:11;;;;;;;2.47;1.27;;;;;;;12.36;90.82;99579.66;20821895;28;20227;-58
2021/05/22 17:19:12;;;;;;;1.70;1.60;;;;;;;12.72;89.66;99583.72;20821076;28;20224;-59
2021/05/22 17:29:12;;;;;;;1.97;1.73;;;;;;;13.06;86.51;99580.84;20768503;28;20954;-57
2021/05/22 17:39:13;;;;;;;4.30;2.47;;;;;;;13.07;85.87;99588.75;20727839;28;20218;-61
2021/05/22 17:49:15;;;;;;;4.40;2.63;;;;;;;13.05;85.46;99601.41;20709979;28;20248;-58
2021/05/22 17:59:16;;;;;;;2.83;2.40;;;;;;;12.50;86.85;99615.97;20723270;28;20232;-57
2021/05/22 18:09:17;;;;;;;2.90;2.70;;;;;;;11.99;89.99;99637.97;20714354;28;20239;-58
2021/05/22 18:19:17;;;;;;;5.13;3.10;;;;;;;11.78;92.86;99653.94;20715682;28;20221;-64
2021/05/22 18:29:18;;;;;;;7.30;5.10;;;;;;;11.60;93.39;99671.38;20712594;28;20253;-58
2021/05/22 18:39:18;;;;;;;6.00;4.00;;;;;;;11.36;94.32;99686.66;20714655;28;20217;-57
2021/05/22 18:49:19;;;;;;;5.57;3.90;;;;;;;11.04;97.59;99719.38;20774684;28;20501;-58
2021/05/22 18:59:19;;;;;;;5.40;4.30;;;;;;;10.88;98.55;99708.13;20786558;28;20239;-57
2021/05/22 19:09:19;;;;;;;4.67;3.20;;;;;;;11.02;96.57;99721.28;20801999;28;20528;-57
2021/05/22 19:19:20;;;;;;;3.87;1.40;;;;;;;11.43;89.36;99741.34;20781109;28;20228;-59
2021/05/22 19:29:20;;;;;;;3.20;1.63;;;;;;;11.36;92.76;99727.56;20802211;28;20698;-59
2021/05/22 19:49:16;;;;;;;1.27;1.03;;;;;;;11.52;82.74;99660.47;20885066;27;21341;-60
2021/05/22 19:59:17;;;;;;;8.80;5.20;;;;;;;11.72;82.54;99678.44;20859461;28;20227;-60
2021/05/22 20:09:22;;;;;;;1.90;1.40;;;;;;;11.52;87.77;99704.06;20864922;28;20677;-62
2021/05/22 20:19:22;;;;;;;2.03;1.40;;;;;;;11.15;91.46;99705.19;20863785;28;20246;-59
2021/05/22 20:29:23;;;;;;;1.20;1.10;;;;;;;10.66;95.76;99703.56;20855466;28;20226;-58
2021/05/22 20:39:23;;;;;;;2.37;2.17;;;;;;;10.30;100.00;99701.78;20869930;28;20232;-60
2021/05/22 20:49:24;;;;;;;3.00;2.80;;;;;;;10.12;100.00;99716.44;20848943;28;21078;-61
2021/05/22 20:59:25;;;;;;;3.93;3.27;;;;;;;9.96;100.00;99734.47;20820429;28;20734;-63
2021/05/22 21:09:26;;;;;;;6.05;4.20;;;;;;;9.69;100.00;99748.78;20793447;28;20234;-61
2021/05/22 21:19:26;;;;;;;4.13;3.53;;;;;;;9.49;100.00;99751.97;20812313;28;20222;-61
2021/05/22 21:29:28;;;;;;;3.63;3.33;;;;;;;9.21;100.00;99763.63;20797239;28;20214;-60
2021/05/22 21:39:28;;;;;;;3.73;3.43;;;;;;;9.06;100.00;99769.16;20826560;28;20521;-61
2021/05/22 21:49:29;;;;;;;3.97;3.37;;;;;;;8.90;100.00;99767.50;20803180;28;20253;-64
2021/05/22 21:59:29;;;;;;;6.10;3.97;;;;;;;8.74;100.00;99764.13;20796152;28;20243;-64
2021/05/22 22:09:30;;;;;;;4.20;3.57;;;;;;;8.53;100.00;99765.53;20807200;28;20212;-60
2021/05/22 22:19:30;;;;;;;4.10;3.70;;;;;;;8.43;100.00;99783.06;20787248;28;20221;-63
2021/05/22 22:29:31;;;;;;;4.17;3.77;;;;;;;8.38;100.00;99796.63;20805948;28;20899;-60
2021/05/22 22:39:31;;;;;;;3.70;3.40;;;;;;;8.46;100.00;99796.13;20784634;28;20277;-60
2021/05/22 22:49:33;;;;;;;4.63;3.33;;;;;;;8.55;100.00;99801.72;20804163;28;20224;-60
2021/05/22 23:09:27;;;;;;;4.33;2.77;;;;;;;8.78;100.00;99802.91;20618812;28;20695;-60
2021/05/22 23:19:27;;;;;;;3.37;3.07;;;;;;;8.78;100.00;99818.88;20684349;28;20232;-61
2021/05/22 23:39:25;;;;;;;5.03;3.50;;;;;;;8.64;100.00;99810.91;20815803;27;20992;-65
2021/05/22 23:49:25;;;;;;;6.30;3.67;;;;;;;8.72;100.00;99829.88;20771158;28;20314;-61
2021/05/22 23:59:25;;;;;;;7.83;3.23;;;;;;;8.71;100.00;99827.31;20865967;28;20283;-60
